Time;durP1;ratioP1;P1;durP2;ratioP2;P2;SDS_P1;SDS_P2;PMS_P1;PMS_P2;Temp;Humidity;BMP_temperature;BMP_pressure;BME280_temperature;BME280_humidity;BME280_pressure;Samples;Min_cycle;Max_cycle;Signal;HPM_P1;HPM_P2
2023/08/20 00:00:31;;;;;;;10.90;8.50;;;;;;;22.75;68.40;99843.29;107242;1257;59363;-40
2023/08/20 00:03:15;;;;;;;14.30;9.80;;;;;;;22.73;68.59;99837.02;107295;1257;73303;-40
2023/08/20 00:05:43;;;;;;;11.40;9.40;;;;;;;22.71;68.96;99839.27;107253;1257;68539;-40
2023/08/20 00:08:10;;;;;;;11.20;9.70;;;;;;;22.69;69.25;99840.89;107289;1257;71047;-40
2023/08/20 00:10:37;;;;;;;12.70;8.90;;;;;;;22.67;69.63;99841.23;107222;1257;61989;-40
2023/08/20 00:13:04;;;;;;;9.30;8.30;;;;;;;22.67;69.78;99840.29;107226;1257;60427;-40
2023/08/20 00:15:31;;;;;;;9.60;8.70;;;;;;;22.69;69.30;99837.01;107269;1257;74251;-40
2023/08/20 00:17:58;;;;;;;14.30;9.40;;;;;;;22.68;69.23;99838.75;107247;1257;66410;-40
2023/08/20 00:20:25;;;;;;;11.10;9.70;;;;;;;22.67;69.15;99838.93;107293;1256;70900;-40
2023/08/20 00:22:53;;;;;;;12.70;9.10;;;;;;;22.65;68.98;99839.15;107221;1257;60541;-40
2023/08/20 00:25:19;;;;;;;10.50;9.40;;;;;;;22.62;68.83;99836.52;107250;1257;60326;-40
2023/08/20 00:27:46;;;;;;;10.40;9.30;;;;;;;22.59;68.66;99832.89;107256;1256;72394;-40
2023/08/20 00:30:14;;;;;;;10.40;8.60;;;;;;;22.60;68.75;99830.34;107229;1257;67281;-40
2023/08/20 00:32:41;;;;;;;10.40;9.30;;;;;;;22.63;68.69;99825.45;107259;1257;73220;-40
2023/08/20 00:35:09;;;;;;;10.90;9.20;;;;;;;22.62;68.79;99826.48;107208;1257;60174;-40
2023/08/20 00:37:36;;;;;;;10.80;9.70;;;;;;;22.60;69.47;99825.77;107272;1257;60395;-40
2023/08/20 00:40:07;;;;;;;9.80;8.80;;;;;;;22.58;70.12;99824.30;107259;1257;74028;-40
2023/08/20 00:42:35;;;;;;;10.40;9.30;;;;;;;22.61;70.04;99821.48;107225;1257;67784;-40
2023/08/20 00:45:03;;;;;;;11.10;9.40;;;;;;;22.64;69.64;99819.59;107222;1257;72676;-40
2023/08/20 00:47:30;;;;;;;12.30;9.50;;;;;;;22.64;69.43;99822.69;107259;1257;60597;-39
2023/08/20 00:49:57;;;;;;;11.40;9.20;;;;;;;22.60;70.00;99819.00;107223;1257;60267;-40
2023/08/20 00:52:24;;;;;;;11.40;9.50;;;;;;;22.59;70.70;99825.55;107239;1257;61001;-40
2023/08/20 00:54:51;;;;;;;11.20;8.50;;;;;;;22.60;71.10;99822.52;107279;1260;68492;-40
2023/08/20 00:57:19;;;;;;;10.30;8.30;;;;;;;22.62;71.02;99822.77;107221;1257;73335;-40
2023/08/20 00:59:49;;;;;;;9.90;8.20;;;;;;;22.66;70.70;99824.20;107125;1257;60385;-40
2023/08/20 01:02:17;;;;;;;9.70;8.80;;;;;;;22.65;70.52;99824.85;107073;1257;60653;-43
2023/08/20 01:05:07;;;;;;;10.60;9.30;;;;;;;22.64;70.34;99822.75;108801;1257;73698;-40
2023/08/20 01:07:44;;;;;;;12.50;9.00;;;;;;;22.64;70.87;99817.63;107191;1257;68022;-40
2023/08/20 01:10:34;;;;;;;10.40;8.70;;;;;;;22.61;70.75;99814.19;106952;1258;72957;-40
2023/08/20 01:13:01;;;;;;;9.50;8.00;;;;;;;22.64;70.07;99815.57;107141;1258;61789;-40
2023/08/20 01:15:28;;;;;;;10.10;8.90;;;;;;;22.66;69.71;99817.72;107028;1258;60386;-40
2023/08/20 01:17:55;;;;;;;10.40;8.90;;;;;;;22.64;69.19;99816.11;107056;1257;73797;-39
2023/08/20 01:20:24;;;;;;;9.30;8.40;;;;;;;22.63;68.97;99812.51;107089;1260;67992;-40
2023/08/20 01:23:13;;;;;;;12.60;9.80;;;;;;;22.59;68.95;99812.05;107129;1260;73075;-40
2023/08/20 01:25:50;;;;;;;11.20;10.00;;;;;;;22.57;69.10;99810.98;107042;1259;60438;-40
2023/08/20 01:28:27;;;;;;;11.80;9.40;;;;;;;22.53;69.21;99810.36;107048;1260;60287;-40
2023/08/20 01:30:56;;;;;;;12.80;8.60;;;;;;;22.53;69.16;99810.92;107170;1258;75155;-40
2023/08/20 01:33:26;;;;;;;11.10;9.10;;;;;;;22.53;69.03;99810.83;107173;1259;66629;-40
2023/08/20 01:35:53;;;;;;;9.80;8.90;;;;;;;22.49;69.63;99805.64;107030;1260;72976;-40
2023/08/20 01:38:21;;;;;;;11.50;9.60;;;;;;;22.43;70.77;99804.67;107129;1260;60495;-39
2023/08/20 01:40:48;;;;;;;10.30;9.00;;;;;;;22.37;70.94;99805.51;106951;1263;60339;-38
2023/08/20 01:43:15;;;;;;;12.80;8.60;;;;;;;22.37;70.83;99810.89;107074;1260;72438;-39
2023/08/20 01:45:42;;;;;;;11.50;9.10;;;;;;;22.38;70.71;99807.93;106956;1259;68019;-39
2023/08/20 01:48:09;;;;;;;10.70;9.50;;;;;;;22.36;70.66;99808.30;107079;1259;73466;-39
2023/08/20 01:50:36;;;;;;;10.90;9.20;;;;;;;22.33;70.40;99806.16;107090;1262;60160;-40
2023/08/20 01:53:04;;;;;;;11.30;9.50;;;;;;;22.29;70.23;99805.45;107075;1260;60465;-40
2023/08/20 01:55:31;;;;;;;11.00;9.50;;;;;;;22.24;69.96;99803.98;107053;1258;74423;-40
2023/08/20 01:57:59;;;;;;;13.00;9.60;;;;;;;22.20;69.85;99807.06;107059;1259;67144;-39
2023/08/20 02:00:27;;;;;;;9.30;8.40;;;;;;;22.20;69.81;99806.52;106933;1259;73101;-39
2023/08/20 02:02:54;;;;;;;10.40;8.60;;;;;;;22.22;70.34;99806.55;107040;1259;60804;-39
2023/08/20 02:05:21;;;;;;;10.40;9.00;;;;;;;22.24;70.81;99806.59;107040;1260;60415;-39
2023/08/20 02:07:48;;;;;;;11.00;9.30;;;;;;;22.22;71.30;99810.88;107273;1258;74249;-39
2023/08/20 02:10:15;;;;;;;10.60;9.50;;;;;;;22.20;71.76;99812.12;107037;1262;68006;-40
2023/08/20 02:12:41;;;;;;;12.30;9.70;;;;;;;22.18;72.16;99809.47;107032;1258;73101;-39
2023/08/20 02:15:11;;;;;;;11.40;9.30;;;;;;;22.19;71.99;99809.21;107147;1257;62016;-40
2023/08/20 02:17:37;;;;;;;12.80;9.60;;;;;;;22.22;71.80;99812.16;107156;1257;60261;-39
2023/08/20 02:20:07;;;;;;;14.50;9.60;;;;;;;22.21;71.58;99808.47;106932;1261;73072;-40
2023/08/20 02:22:34;;;;;;;11.20;10.00;;;;;;;22.20;71.54;99811.19;107037;1260;66766;-40
2023/08/20 02:25:01;;;;;;;11.80;10.60;;;;;;;22.17;71.38;99810.85;107132;1259;73229;-40
2023/08/20 02:27:28;;;;;;;11.40;9.60;;;;;;;22.15;71.65;99811.68;107090;1259;61788;-40
2023/08/20 02:29:55;;;;;;;13.20;10.20;;;;;;;22.15;71.79;99813.41;107081;1260;60017;-40
2023/08/20 02:32:22;;;;;;;12.50;9.70;;;;;;;22.15;71.75;99814.35;107041;1260;74583;-40
2023/08/20 02:34:51;;;;;;;13.30;9.80;;;;;;;22.14;71.29;99811.54;107081;1260;68095;-40
2023/08/20 02:37:17;;;;;;;15.40;10.60;;;;;;;22.11;71.05;99810.89;107040;1259;72362;-39
2023/08/20 02:39:44;;;;;;;12.90;11.50;;;;;;;22.08;70.85;99812.41;107025;1260;60287;-40
2023/08/20 02:42:11;;;;;;;12.90;11.40;;;;;;;22.06;70.50;99813.59;107023;1260;60424;-40
2023/08/20 02:44:38;;;;;;;12.50;10.80;;;;;;;22.04;70.15;99814.26;107038;1259;74392;-40
2023/08/20 02:47:06;;;;;;;10.90;9.80;;;;;;;22.03;69.85;99812.94;107088;1260;67703;-40
2023/08/20 02:49:34;;;;;;;11.90;9.90;;;;;;;22.03;69.83;99812.14;107114;1260;73312;-40
2023/08/20 02:52:03;;;;;;;11.90;10.60;;;;;;;22.00;69.80;99815.75;107076;1260;60357;-40
2023/08/20 02:54:32;;;;;;;13.20;10.20;;;;;;;21.98;69.69;99818.30;107058;1260;60429;-40
2023/08/20 02:56:59;;;;;;;12.10;10.20;;;;;;;21.96;69.12;99818.37;107147;1260;73721;-39
2023/08/20 02:59:26;;;;;;;12.20;10.10;;;;;;;21.95;68.50;99816.26;107055;1260;66394;-40
2023/08/20 03:01:53;;;;;;;10.90;9.70;;;;;;;21.93;68.34;99811.25;107066;1259;73376;-40
2023/08/20 03:04:20;;;;;;;10.40;9.30;;;;;;;21.92;68.38;99815.42;107061;1260;62023;-39
2023/08/20 03:06:47;;;;;;;10.80;9.40;;;;;;;21.94;68.33;99816.27;107049;1260;60718;-40
2023/08/20 03:09:14;;;;;;;12.20;10.10;;;;;;;21.92;68.28;99812.36;107112;1258;74445;-40
2023/08/20 03:11:40;;;;;;;12.00;10.60;;;;;;;21.87;68.24;99811.42;107099;1258;68243;-40
2023/08/20 03:14:07;;;;;;;12.00;10.00;;;;;;;21.83;68.45;99810.86;107106;1260;72702;-39
2023/08/20 03:16:34;;;;;;;15.60;10.50;;;;;;;21.79;68.53;99807.02;107115;1262;60730;-39
2023/08/20 03:19:01;;;;;;;12.90;10.70;;;;;;;21.79;68.05;99806.14;107099;1261;60360;-39
2023/08/20 03:21:28;;;;;;;13.50;9.50;;;;;;;21.81;67.54;99803.51;107137;1260;73803;-39
2023/08/20 03:23:55;;;;;;;11.60;10.40;;;;;;;21.85;67.35;99802.08;107120;1260;68552;-41
2023/08/20 03:26:22;;;;;;;11.60;9.60;;;;;;;21.84;67.40;99801.30;107103;1259;73228;-39
2023/08/20 03:28:49;;;;;;;15.10;9.90;;;;;;;21.82;67.64;99804.27;107101;1260;60184;-40
2023/08/20 03:31:18;;;;;;;12.90;9.90;;;;;;;21.80;67.64;99806.75;107332;1256;60503;-40
2023/08/20 03:33:44;;;;;;;13.20;10.50;;;;;;;21.77;67.84;99808.70;107175;1256;74241;-40
2023/08/20 03:36:13;;;;;;;12.00;10.00;;;;;;;21.76;68.03;99807.78;107423;1259;68025;-40
2023/08/20 03:38:40;;;;;;;12.20;9.20;;;;;;;21.79;68.17;99812.06;107202;1256;73187;-40
2023/08/20 03:41:08;;;;;;;14.00;10.10;;;;;;;21.83;68.58;99815.77;107226;1256;60423;-40
2023/08/20 03:43:35;;;;;;;12.20;10.30;;;;;;;21.83;69.74;99813.00;107231;1256;60281;-39
2023/08/20 03:46:02;;;;;;;12.00;10.70;;;;;;;21.84;69.98;99815.19;107234;1256;74531;-40
2023/08/20 03:48:29;;;;;;;11.30;10.00;;;;;;;21.85;70.04;99813.11;107234;1256;67899;-40
2023/08/20 03:50:56;;;;;;;10.40;9.40;;;;;;;21.88;70.32;99809.97;107187;1257;73087;-40
2023/08/20 03:53:23;;;;;;;10.50;9.40;;;;;;;21.96;70.43;99810.14;107263;1257;60545;-40
2023/08/20 03:55:50;;;;;;;12.00;9.60;;;;;;;22.02;70.48;99809.27;107283;1257;60441;-39
2023/08/20 03:58:17;;;;;;;13.60;10.20;;;;;;;22.05;70.38;99804.52;107273;1259;74386;-40
2023/08/20 04:00:44;;;;;;;13.10;10.00;;;;;;;22.09;70.45;99803.04;107316;1257;68336;-40
2023/08/20 04:03:11;;;;;;;14.20;9.50;;;;;;;22.13;70.29;99801.21;107265;1256;73059;-40
2023/08/20 04:05:39;;;;;;;10.40;8.70;;;;;;;22.19;70.30;99800.23;107255;1257;60504;-40
2023/08/20 04:08:06;;;;;;;10.10;9.10;;;;;;;22.27;70.32;99800.85;107294;1257;60421;-40
2023/08/20 04:10:33;;;;;;;10.70;9.40;;;;;;;22.32;70.42;99801.05;107256;1256;74378;-38
2023/08/20 04:12:59;;;;;;;14.40;9.80;;;;;;;22.36;70.39;99799.45;107260;1256;68144;-38
2023/08/20 04:15:26;;;;;;;11.70;9.80;;;;;;;22.41;70.19;99798.80;107305;1256;73211;-38
2023/08/20 04:17:53;;;;;;;12.10;8.90;;;;;;;22.45;70.05;99793.64;107182;1256;60749;-38
2023/08/20 04:20:21;;;;;;;9.60;8.70;;;;;;;22.53;69.87;99793.30;107252;1256;60418;-40
2023/08/20 04:22:49;;;;;;;11.60;8.90;;;;;;;22.63;70.03;99790.55;107134;1255;73965;-38
2023/08/20 04:25:16;;;;;;;10.50;9.40;;;;;;;22.69;70.50;99787.19;107102;1257;67999;-38
2023/08/20 04:27:42;;;;;;;12.70;9.10;;;;;;;22.74;70.75;99788.59;107045;1257;73332;-38
2023/08/20 04:30:10;;;;;;;10.10;9.10;;;;;;;22.77;70.80;99785.34;109135;1255;60655;-39
2023/08/20 04:32:37;;;;;;;11.70;8.80;;;;;;;22.84;70.56;99784.30;109074;1255;59059;-39
2023/08/20 04:35:04;;;;;;;11.20;8.60;;;;;;;22.95;70.15;99787.45;109066;1256;73762;-39
2023/08/20 04:37:32;;;;;;;11.70;9.80;;;;;;;23.08;70.18;99787.52;109065;1256;66671;-39
2023/08/20 04:40:00;;;;;;;11.00;9.60;;;;;;;23.17;70.28;99785.70;107681;1256;71103;-39
2023/08/20 04:42:27;;;;;;;13.60;10.40;;;;;;;23.26;70.47;99783.41;107229;1256;60544;-39
2023/08/20 04:44:55;;;;;;;12.00;9.60;;;;;;;23.34;70.59;99783.27;107165;1255;60341;-38
2023/08/20 04:47:22;;;;;;;15.50;9.00;;;;;;;23.44;70.29;99790.77;107243;1257;74282;-39
2023/08/20 04:49:49;;;;;;;10.60;9.40;;;;;;;23.53;70.66;99793.48;107238;1257;68323;-38
2023/08/20 04:52:16;;;;;;;11.10;9.90;;;;;;;23.61;70.97;99791.83;107281;1259;73177;-39
2023/08/20 04:54:43;;;;;;;13.00;10.50;;;;;;;23.67;70.79;99790.55;107244;1255;60392;-39
2023/08/20 04:57:10;;;;;;;10.70;9.50;;;;;;;23.73;70.52;99792.30;107242;1256;60778;-39
2023/08/20 04:59:37;;;;;;;16.10;10.70;;;;;;;23.78;69.62;99792.53;107306;1256;72430;-39
2023/08/20 05:02:19;;;;;;;11.40;9.80;;;;;;;23.85;69.15;99795.52;107338;1256;68603;-38
2023/08/20 05:04:51;;;;;;;12.70;10.20;;;;;;;23.96;68.68;99794.11;107271;1256;73254;-39
2023/08/20 05:07:18;;;;;;;13.80;10.20;;;;;;;24.06;68.47;99797.27;107224;1257;60376;-38
2023/08/20 05:09:45;;;;;;;12.60;9.90;;;;;;;24.14;67.77;99791.83;107282;1258;60434;-39
2023/08/20 05:12:12;;;;;;;12.10;9.90;;;;;;;24.21;66.88;99791.49;107204;1255;74273;-39
2023/08/20 05:14:39;;;;;;;14.30;10.20;;;;;;;24.30;65.86;99791.88;107292;1257;68453;-39
2023/08/20 05:17:05;;;;;;;11.30;10.30;;;;;;;24.37;65.04;99791.26;107300;1256;71961;-39
2023/08/20 05:19:33;;;;;;;14.20;10.30;;;;;;;24.43;64.27;99782.74;107222;1256;60793;-41
2023/08/20 05:22:00;;;;;;;10.50;9.50;;;;;;;24.48;64.16;99781.70;107281;1261;60338;-40
2023/08/20 05:24:29;;;;;;;21.40;13.30;;;;;;;24.54;64.18;99780.98;107278;1257;74146;-39
2023/08/20 05:27:14;;;;;;;15.00;12.80;;;;;;;24.59;64.29;99785.00;107202;1257;68202;-39
2023/08/20 05:29:49;;;;;;;18.40;11.70;;;;;;;24.69;64.07;99781.05;107179;1256;71856;-39
2023/08/20 05:32:16;;;;;;;15.00;10.80;;;;;;;24.79;64.16;99779.38;107254;1255;59733;-39
2023/08/20 05:34:43;;;;;;;17.60;11.50;;;;;;;24.86;63.88;99781.40;107084;1257;60304;-39
2023/08/20 05:37:10;;;;;;;13.70;10.10;;;;;;;24.92;64.04;99778.59;107105;1256;74430;-39
2023/08/20 05:39:41;;;;;;;13.80;9.80;;;;;;;24.98;63.43;99779.98;107169;1259;67865;-39
2023/08/20 05:42:08;;;;;;;12.20;9.50;;;;;;;25.03;62.53;99779.48;107338;1256;71781;-39
2023/08/20 05:44:36;;;;;;;14.60;9.70;;;;;;;25.10;62.18;99775.85;107466;1255;60838;-38
2023/08/20 05:47:05;;;;;;;13.30;9.50;;;;;;;25.17;62.51;99778.41;107235;1255;60761;-38
2023/08/20 05:49:32;;;;;;;14.50;10.40;;;;;;;25.23;62.42;99773.91;107287;1259;74369;-38
2023/08/20 05:51:59;;;;;;;13.20;9.40;;;;;;;25.30;62.58;99778.10;107320;1257;68587;-39
2023/08/20 05:54:27;;;;;;;9.90;8.80;;;;;;;25.39;62.30;99775.16;107348;1259;72616;-38
2023/08/20 05:56:54;;;;;;;11.50;10.30;;;;;;;25.50;62.41;99774.55;107379;1259;60386;-38
2023/08/20 05:59:21;;;;;;;13.00;11.20;;;;;;;25.59;62.87;99776.00;107339;1257;60422;-39
2023/08/20 06:01:48;;;;;;;12.90;11.40;;;;;;;25.66;62.36;99771.79;107284;1259;74461;-38
2023/08/20 06:04:15;;;;;;;17.00;12.70;;;;;;;25.73;62.21;99771.13;107271;1256;68211;-39
2023/08/20 06:06:41;;;;;;;15.70;12.70;;;;;;;25.80;62.37;99770.87;107291;1257;73232;-39
2023/08/20 06:09:08;;;;;;;17.90;13.10;;;;;;;25.87;61.88;99773.61;107428;1257;60284;-38
2023/08/20 06:11:36;;;;;;;15.60;12.30;;;;;;;25.95;61.77;99776.80;107396;1259;60048;-38
2023/08/20 06:14:03;;;;;;;17.00;12.90;;;;;;;26.03;61.60;99775.48;107393;1256;74103;-38
2023/08/20 06:16:30;;;;;;;14.00;11.80;;;;;;;26.11;61.48;99772.08;107421;1256;68665;-40
2023/08/20 06:18:58;;;;;;;11.60;10.40;;;;;;;26.23;61.34;99771.73;107420;1256;73157;-40
2023/08/20 06:21:29;;;;;;;15.30;10.40;;;;;;;26.37;60.80;99772.23;107078;1254;60498;-39
2023/08/20 06:23:56;;;;;;;13.10;11.00;;;;;;;26.47;59.82;99771.13;107391;1258;60450;-39
2023/08/20 06:26:23;;;;;;;15.80;11.50;;;;;;;26.57;59.69;99769.45;107302;1257;74281;-39
2023/08/20 06:28:50;;;;;;;14.80;11.70;;;;;;;26.64;59.12;99767.17;107330;1257;68592;-39
2023/08/20 06:31:17;;;;;;;18.60;11.50;;;;;;;26.71;59.30;99764.96;107329;1254;73058;-39
2023/08/20 06:33:44;;;;;;;14.90;11.10;;;;;;;26.79;59.10;99766.32;107409;1258;60390;-39
2023/08/20 06:36:11;;;;;;;16.50;10.40;;;;;;;26.88;58.79;99768.93;107366;1257;60441;-39
2023/08/20 06:38:38;;;;;;;13.80;10.60;;;;;;;26.95;58.09;99771.08;107358;1256;74405;-39
2023/08/20 06:41:04;;;;;;;12.70;10.50;;;;;;;27.03;57.51;99766.95;107421;1255;68866;-39
2023/08/20 06:43:31;;;;;;;14.10;9.30;;;;;;;27.09;56.87;99766.60;107474;1255;73160;-39
2023/08/20 06:45:58;;;;;;;11.80;9.00;;;;;;;27.17;56.23;99765.61;107417;1258;60659;-39
2023/08/20 06:48:26;;;;;;;14.30;8.80;;;;;;;27.25;55.86;99760.60;107424;1255;60367;-39
2023/08/20 06:50:53;;;;;;;12.90;10.10;;;;;;;27.34;55.28;99756.96;107405;1255;73846;-39
2023/08/20 06:53:20;;;;;;;10.40;9.10;;;;;;;27.42;55.65;99758.15;107425;1257;68241;-40
2023/08/20 06:55:47;;;;;;;12.10;10.00;;;;;;;27.50;55.12;99756.35;107428;1256;72847;-40
2023/08/20 06:58:14;;;;;;;14.50;10.00;;;;;;;27.58;55.27;99761.18;107345;1255;60537;-40
2023/08/20 07:00:41;;;;;;;12.70;10.00;;;;;;;27.66;55.13;99759.45;107370;1257;60124;-40
2023/08/20 07:03:07;;;;;;;14.50;9.40;;;;;;;27.75;55.24;99761.45;107256;1257;73044;-40
2023/08/20 07:05:34;;;;;;;12.40;9.80;;;;;;;27.84;55.11;99761.59;107271;1257;67684;-40
2023/08/20 07:08:01;;;;;;;13.00;9.30;;;;;;;27.93;55.30;99760.86;107167;1262;72964;-41
2023/08/20 07:10:28;;;;;;;11.60;8.80;;;;;;;28.04;54.14;99762.81;107274;1259;60536;-39
2023/08/20 07:12:55;;;;;;;10.40;8.30;;;;;;;28.14;53.90;99760.15;107305;1255;60428;-38
2023/08/20 07:15:22;;;;;;;10.90;7.10;;;;;;;28.26;54.09;99762.52;107249;1259;74869;-38
2023/08/20 07:17:49;;;;;;;9.80;6.80;;;;;;;28.37;52.78;99762.95;107287;1257;68537;-39
2023/08/20 07:20:15;;;;;;;7.90;6.80;;;;;;;28.49;52.18;99761.65;107325;1255;73156;-39
2023/08/20 07:22:42;;;;;;;13.30;6.00;;;;;;;28.62;51.71;99756.51;108371;1257;60308;-39
2023/08/20 07:25:09;;;;;;;6.60;5.90;;;;;;;28.74;51.49;99757.22;107406;1255;60506;-39
2023/08/20 07:27:36;;;;;;;7.00;6.20;;;;;;;28.85;49.84;99751.73;107247;1257;73823;-39
2023/08/20 07:30:05;;;;;;;8.00;6.40;;;;;;;28.98;48.93;99752.27;107361;1254;68163;-39
2023/08/20 07:32:32;;;;;;;8.40;5.70;;;;;;;29.08;48.05;99751.11;107380;1257;72679;-39
2023/08/20 07:34:59;;;;;;;8.10;5.70;;;;;;;29.19;47.28;99751.77;107325;1257;60319;-39
2023/08/20 07:37:26;;;;;;;9.90;6.00;;;;;;;29.28;47.01;99751.98;107356;1257;60175;-38
2023/08/20 07:39:52;;;;;;;10.70;6.20;;;;;;;29.38;47.01;99752.02;107412;1257;74368;-39
2023/08/20 07:42:19;;;;;;;9.90;6.90;;;;;;;29.45;47.15;99752.03;107479;1254;67052;-39
2023/08/20 07:44:46;;;;;;;9.50;6.60;;;;;;;29.53;46.80;99751.83;107421;1255;73120;-39
2023/08/20 07:47:13;;;;;;;8.40;5.90;;;;;;;29.62;46.77;99748.48;107347;1254;60423;-39
2023/08/20 07:49:40;;;;;;;8.10;6.30;;;;;;;29.72;47.15;99745.97;107429;1254;60325;-39
2023/08/20 07:52:06;;;;;;;9.70;6.30;;;;;;;29.84;46.65;99744.61;107463;1254;74383;-39
2023/08/20 07:54:33;;;;;;;9.70;6.20;;;;;;;29.96;46.30;99744.70;107351;1257;68248;-39
2023/08/20 07:57:00;;;;;;;8.80;6.20;;;;;;;30.05;45.52;99743.71;107900;1258;72802;-39
2023/08/20 07:59:28;;;;;;;8.40;6.00;;;;;;;30.13;45.63;99745.68;107269;1257;60306;-39
2023/08/20 08:01:55;;;;;;;7.70;6.30;;;;;;;30.18;45.42;99744.49;107454;1259;60331;-39
2023/08/20 08:04:21;;;;;;;10.90;5.90;;;;;;;30.24;44.54;99743.46;107472;1257;74391;-39
2023/08/20 08:06:48;;;;;;;11.90;6.30;;;;;;;30.30;44.07;99743.61;107398;1257;67880;-39
2023/08/20 08:09:26;;;;;;;10.80;6.50;;;;;;;30.37;43.87;99741.90;107425;1257;72376;-39
2023/08/20 08:11:53;;;;;;;10.90;6.10;;;;;;;30.47;43.80;99741.15;107476;1257;60414;-39
2023/08/20 08:14:20;;;;;;;11.90;6.10;;;;;;;30.56;43.36;99739.15;107429;1257;60591;-39
2023/08/20 08:19:23;;;;;;;8.20;5.70;;;;;;;30.75;43.28;99736.52;104109;1291;600352;-38
2023/08/20 08:21:51;;;;;;;8.20;5.80;;;;;;;30.81;43.10;99734.50;106585;1268;59055;-39
2023/08/20 08:24:18;;;;;;;8.30;5.70;;;;;;;30.89;42.66;99732.63;106581;1266;60034;-39
2023/08/20 08:26:46;;;;;;;7.60;5.70;;;;;;;30.98;42.43;99736.36;106603;1266;72273;-39
2023/08/20 08:29:13;;;;;;;8.70;5.30;;;;;;;31.06;42.33;99733.03;106558;1267;68065;-39
2023/08/20 08:31:41;;;;;;;12.30;5.70;;;;;;;31.13;41.92;99731.23;106771;1264;72730;-39
2023/08/20 08:34:08;;;;;;;13.50;5.70;;;;;;;31.21;41.49;99729.70;107028;1256;207699;-39
2023/08/20 08:36:36;;;;;;;7.60;4.90;;;;;;;31.29;40.97;99730.24;107182;1258;59236;-39
2023/08/20 08:39:05;;;;;;;5.90;4.80;;;;;;;31.38;41.44;99722.85;107231;1257;72239;-39
2023/08/20 08:41:32;;;;;;;6.80;5.10;;;;;;;31.48;40.37;99723.84;107213;1257;68250;-39
2023/08/20 08:44:00;;;;;;;6.10;5.30;;;;;;;31.58;40.08;99720.48;107234;1257;72659;-39
2023/08/20 08:46:28;;;;;;;6.50;4.40;;;;;;;31.66;38.69;99718.13;107247;1258;60065;-39
2023/08/20 08:48:55;;;;;;;6.40;4.80;;;;;;;31.69;38.73;99717.95;107202;1257;60311;-39
2023/08/20 08:51:23;;;;;;;7.40;5.10;;;;;;;31.75;38.76;99716.77;107274;1257;72147;-39
2023/08/20 08:53:50;;;;;;;8.10;4.10;;;;;;;31.80;38.29;99715.29;107065;1257;66342;-39
2023/08/20 08:56:18;;;;;;;7.20;4.50;;;;;;;31.85;37.42;99713.91;107121;1257;72645;-39
2023/08/20 08:58:46;;;;;;;7.70;5.00;;;;;;;31.91;37.80;99716.67;107095;1257;60093;-38
2023/08/20 09:01:13;;;;;;;5.90;4.50;;;;;;;32.00;37.64;99712.90;107113;1257;59547;-38
2023/08/20 09:03:41;;;;;;;4.80;4.20;;;;;;;32.08;36.97;99713.90;107178;1257;73463;-39
2023/08/20 09:06:09;;;;;;;6.40;4.60;;;;;;;32.13;37.20;99708.70;107227;1257;66304;-39
2023/08/20 09:08:37;;;;;;;5.40;4.80;;;;;;;32.19;36.90;99708.66;107285;1257;71461;-39
2023/08/20 09:11:05;;;;;;;6.80;4.90;;;;;;;32.24;36.74;99711.45;107252;1257;59721;-39
2023/08/20 09:13:37;;;;;;;8.10;5.00;;;;;;;32.28;36.83;99708.71;107206;1257;60030;-39
2023/08/20 09:16:06;;;;;;;6.20;4.40;;;;;;;32.33;36.07;99711.10;107216;1256;73054;-39
2023/08/20 09:18:54;;;;;;;7.50;4.60;;;;;;;32.39;35.54;99710.00;107301;1257;66713;-39
2023/08/20 09:21:21;;;;;;;7.00;4.40;;;;;;;32.44;35.33;99710.03;107223;1257;71407;-39
2023/08/20 09:23:49;;;;;;;7.20;4.60;;;;;;;32.50;35.24;99707.73;107062;1257;59461;-39
2023/08/20 09:26:16;;;;;;;7.10;4.40;;;;;;;32.58;35.20;99703.84;107152;1256;60206;-39
2023/08/20 09:28:45;;;;;;;7.10;4.30;;;;;;;32.71;35.59;99705.33;107223;1257;71468;-40
2023/08/20 09:31:13;;;;;;;7.90;4.40;;;;;;;32.86;35.42;99703.65;107225;1256;67225;-40
2023/08/20 09:33:51;;;;;;;5.00;4.10;;;;;;;33.01;35.44;99703.30;107151;1257;73106;-40
2023/08/20 09:36:34;;;;;;;5.10;4.40;;;;;;;33.14;35.13;99702.39;107184;1257;59542;-39
2023/08/20 09:39:02;;;;;;;7.00;4.50;;;;;;;33.23;34.80;99698.90;107086;1257;59723;-40
2023/08/20 09:41:31;;;;;;;6.80;4.10;;;;;;;33.28;35.22;99701.77;107196;1255;71745;-39
2023/08/20 09:43:59;;;;;;;4.60;4.00;;;;;;;33.35;34.65;99702.41;107198;1257;67504;-40
2023/08/20 09:46:27;;;;;;;6.50;4.40;;;;;;;33.42;34.35;99702.84;107313;1257;72787;-40
2023/08/20 09:48:56;;;;;;;5.20;4.40;;;;;;;33.48;34.11;99696.70;107311;1257;59629;-40
2023/08/20 09:51:28;;;;;;;5.90;4.30;;;;;;;33.57;33.51;99698.92;107342;1262;59509;-40
2023/08/20 09:54:22;;;;;;;8.60;4.40;;;;;;;33.69;34.04;99700.48;107294;1257;73018;-40
2023/08/20 09:56:52;;;;;;;5.50;3.90;;;;;;;33.81;33.30;99700.10;107265;1257;67924;-40
2023/08/20 09:59:20;;;;;;;9.00;4.70;;;;;;;33.86;32.85;99703.84;107256;1258;73159;-40
2023/08/20 10:01:47;;;;;;;5.40;4.40;;;;;;;33.92;33.27;99705.92;107207;1257;59571;-40
2023/08/20 10:04:15;;;;;;;6.70;4.40;;;;;;;33.98;32.65;99703.02;107318;1257;60027;-40
2023/08/20 10:06:43;;;;;;;6.90;4.10;;;;;;;34.03;32.54;99699.59;107259;1261;73029;-40
2023/08/20 10:09:11;;;;;;;5.40;4.30;;;;;;;34.11;32.34;99694.81;107297;1257;66302;-39
2023/08/20 10:11:39;;;;;;;8.30;4.30;;;;;;;34.23;32.82;99692.16;107227;1257;71458;-40
2023/08/20 10:14:07;;;;;;;7.30;4.50;;;;;;;34.47;33.21;99693.86;107276;1257;59716;-40
2023/08/20 10:16:34;;;;;;;6.00;4.20;;;;;;;34.71;32.38;99694.07;107306;1258;60031;-40
2023/08/20 10:19:04;;;;;;;5.50;4.00;;;;;;;34.85;31.66;99695.15;107282;1257;73056;-40
2023/08/20 10:21:32;;;;;;;7.40;4.20;;;;;;;34.92;31.52;99691.28;107259;1257;67644;-40
2023/08/20 10:24:06;;;;;;;5.40;4.20;;;;;;;34.89;31.14;99690.52;107274;1256;72691;-39
2023/08/20 10:26:34;;;;;;;4.90;4.00;;;;;;;34.88;31.69;99683.25;107239;1258;60212;-40
2023/08/20 10:29:37;;;;;;;9.60;4.70;;;;;;;34.99;31.64;99680.34;107135;1257;60009;-40
2023/08/20 10:32:09;;;;;;;4.80;3.90;;;;;;;35.19;30.93;99675.77;107283;1256;73031;-40
2023/08/20 10:34:38;;;;;;;7.30;4.10;;;;;;;35.29;29.62;99672.00;107253;1257;67893;-40
2023/08/20 10:37:10;;;;;;;;;;;;;;;35.31;29.60;99671.73;107274;1258;72699;-40
2023/08/20 10:39:38;;;;;;;7.50;4.10;;;;;;;35.39;29.66;99668.09;107233;1258;59588;-40
2023/08/20 10:42:14;;;;;;;6.60;4.20;;;;;;;35.46;29.84;99660.95;107306;1257;59477;-40
2023/08/20 10:45:05;;;;;;;6.30;4.00;;;;;;;35.52;29.72;99660.97;107290;1257;73495;-40
2023/08/20 10:47:43;;;;;;;6.30;4.30;;;;;;;35.53;30.70;99655.61;107273;1256;67639;-40
2023/08/20 10:50:11;;;;;;;8.00;4.20;;;;;;;35.53;30.79;99660.20;107258;1258;72654;-40
2023/08/20 10:52:40;;;;;;;7.60;4.30;;;;;;;35.54;30.73;99656.85;107050;1257;59951;-39
2023/08/20 10:55:09;;;;;;;;;;;;;;;35.63;31.16;99647.20;107254;1261;59932;-40
2023/08/20 10:57:37;;;;;;;5.50;4.30;;;;;;;35.77;30.62;99643.05;107238;1257;71776;-40
2023/08/20 11:00:10;;;;;;;5.40;4.00;;;;;;;35.90;30.36;99643.04;107335;1258;67545;-40
2023/08/20 11:02:42;;;;;;;7.30;4.70;;;;;;;36.07;29.86;99640.81;107314;1260;72772;-40
2023/08/20 11:05:17;;;;;;;5.70;4.40;;;;;;;36.21;29.98;99641.57;107250;1257;60066;-40
2023/08/20 11:07:46;;;;;;;6.10;4.30;;;;;;;36.30;29.98;99640.14;107295;1257;59606;-40
2023/08/20 11:10:17;;;;;;;6.40;4.40;;;;;;;36.37;29.28;99638.58;107298;1256;71789;-40
2023/08/20 11:12:45;;;;;;;5.60;4.00;;;;;;;36.44;29.18;99636.48;107308;1257;67092;-40
2023/08/20 11:15:13;;;;;;;7.20;4.30;;;;;;;36.54;29.05;99636.93;107290;1257;72681;-40
2023/08/20 11:17:50;;;;;;;6.20;4.40;;;;;;;36.62;29.22;99631.73;107273;1262;60098;-40
2023/08/20 11:20:18;;;;;;;4.50;4.00;;;;;;;36.66;28.97;99631.64;107238;1258;60575;-40
2023/08/20 11:22:46;;;;;;;9.90;4.10;;;;;;;36.64;29.45;99629.91;107267;1257;73159;-40
2023/08/20 11:25:13;;;;;;;5.40;4.00;;;;;;;36.69;29.35;99626.86;107278;1256;66291;-40
2023/08/20 11:27:44;;;;;;;5.60;3.90;;;;;;;36.88;28.73;99624.20;107288;1258;72667;-40